PWSweather.com
Personal Weather Stations
Station Observations
ANTHEMNP
Anthem North Parkside, Anthem, AZ 85086

Anthem North ParksideAnthem, AZ 85086

Lat: 33.876464, Lon: -112.13861199999997

Elevation: 1930

Station Type: Davis Vantage Vue with Pro 2 console

http://www.azjerry.com/ANPW/wxindex.php

High Low Average
Temperature 95.0°F35.0°C 74.5°F23.6°C 84.8°F29.3°C
Dew Point 62.0°F16.7°C 53.0°F11.7°C 58.2°F14.6°C
Winds 6.8 mph 10.9 kmh Calm Calm 2.0 mph SE3.2 kmh SE
Wind Gusts 21.0 mph33.8 kmh -- 5.0 mph8.0 kmh
Humidity 57% 25% 42%
Pressure 29.93 in1013.5 mb 29.79 in1008.8 mb -
Precipitation 0.00 in0.0 mm - -
Hour Temp Dew Point Humidity Winds Wind Gusts Pressure Precip Precip Rate Daily Precip Total
12:00 AM 81.9°F27.7°C 59.0°F15.0°C 46% 2.0 mph NNE3.2 kmh NNE 3.0 mph4.8 kmh 29.86 in1011.2 mb 0.00 in0.0 mm 0.00 in0.0 mm 0.00 in0.0 mm
12:10 AM 81.6°F27.6°C 59.0°F15.0°C 46% 1.5 mph N2.4 kmh N 3.0 mph4.8 kmh 29.87 in1011.5 mb 0.00 in0.0 mm 0.00 in0.0 mm 0.00 in0.0 mm
12:20 AM 81.8°F27.7°C 58.0°F14.4°C 45% 1.7 mph N2.7 kmh N 4.0 mph6.4 kmh 29.87 in1011.5 mb 0.00 in0.0 mm 0.00 in0.0 mm 0.00 in0.0 mm
12:30 AM 81.7°F27.6°C 58.0°F14.4°C 45% 1.8 mph N2.9 kmh N 3.0 mph4.8 kmh 29.87 in1011.5 mb 0.00 in0.0 mm 0.00 in0.0 mm 0.00 in0.0 mm
12:40 AM 81.5°F27.5°C 58.0°F14.4°C 45% 1.7 mph N2.7 kmh N 3.0 mph4.8 kmh 29.87 in1011.5 mb 0.00 in0.0 mm 0.00 in0.0 mm 0.00 in0.0 mm
12:50 AM 81.1°F27.3°C 59.0°F15.0°C 47% 1.9 mph N3.1 kmh N 3.0 mph4.8 kmh 29.87 in1011.5 mb 0.00 in0.0 mm 0.00 in0.0 mm 0.00 in0.0 mm
01:00 AM 81.1°F27.3°C 59.0°F15.0°C 47% 2.1 mph NNW3.4 kmh NNW 4.0 mph6.4 kmh 29.87 in1011.5 mb 0.00 in0.0 mm 0.00 in0.0 mm 0.00 in0.0 mm
01:10 AM 80.6°F27.0°C 59.0°F15.0°C 48% 1.4 mph NE2.3 kmh NE 3.0 mph4.8 kmh 29.87 in1011.5 mb 0.00 in0.0 mm 0.00 in0.0 mm 0.00 in0.0 mm
01:20 AM 80.7°F27.1°C 59.0°F15.0°C 47% 2.0 mph N3.2 kmh N 3.0 mph4.8 kmh 29.88 in1011.9 mb 0.00 in0.0 mm 0.00 in0.0 mm 0.00 in0.0 mm
01:30 AM 80.7°F27.1°C 59.0°F15.0°C 47% 1.7 mph N2.7 kmh N 3.0 mph4.8 kmh 29.88 in1011.9 mb 0.00 in0.0 mm 0.00 in0.0 mm 0.00 in0.0 mm
01:40 AM 80.7°F27.1°C 59.0°F15.0°C 47% 1.6 mph NE2.6 kmh NE 3.0 mph4.8 kmh 29.88 in1011.9 mb 0.00 in0.0 mm 0.00 in0.0 mm 0.00 in0.0 mm
01:50 AM 80.9°F27.2°C 59.0°F15.0°C 47% 1.5 mph NNE2.4 kmh NNE 3.0 mph4.8 kmh 29.88 in1011.9 mb 0.00 in0.0 mm 0.00 in0.0 mm 0.00 in0.0 mm
02:00 AM 80.6°F27.0°C 58.0°F14.4°C 47% 2.0 mph N3.2 kmh N 4.0 mph6.4 kmh 29.88 in1011.9 mb 0.00 in0.0 mm 0.00 in0.0 mm 0.00 in0.0 mm
02:10 AM 80.2°F26.8°C 59.0°F15.0°C 48% 1.6 mph N2.6 kmh N 3.0 mph4.8 kmh 29.88 in1011.9 mb 0.00 in0.0 mm 0.00 in0.0 mm 0.00 in0.0 mm
02:20 AM 79.7°F26.5°C 59.0°F15.0°C 49% 1.9 mph N3.1 kmh N 4.0 mph6.4 kmh 29.88 in1011.9 mb 0.00 in0.0 mm 0.00 in0.0 mm 0.00 in0.0 mm
02:30 AM 79.7°F26.5°C 59.0°F15.0°C 49% 2.1 mph NNE3.4 kmh NNE 5.0 mph8.0 kmh 29.87 in1011.5 mb 0.00 in0.0 mm 0.00 in0.0 mm 0.00 in0.0 mm
02:40 AM 79.7°F26.5°C 58.0°F14.4°C 48% 2.2 mph N3.5 kmh N 4.0 mph6.4 kmh 29.87 in1011.5 mb 0.00 in0.0 mm 0.00 in0.0 mm 0.00 in0.0 mm
02:50 AM 79.7°F26.5°C 58.0°F14.4°C 48% 1.4 mph N2.3 kmh N 3.0 mph4.8 kmh 29.87 in1011.5 mb 0.00 in0.0 mm 0.00 in0.0 mm 0.00 in0.0 mm
03:00 AM 79.6°F26.4°C 58.0°F14.4°C 48% 1.7 mph N2.7 kmh N 4.0 mph6.4 kmh 29.87 in1011.5 mb 0.00 in0.0 mm 0.00 in0.0 mm 0.00 in0.0 mm
03:10 AM 79.4°F26.3°C 58.0°F14.4°C 48% 1.2 mph N1.9 kmh N 2.0 mph3.2 kmh 29.87 in1011.5 mb 0.00 in0.0 mm 0.00 in0.0 mm 0.00 in0.0 mm
03:20 AM 78.9°F26.1°C 58.0°F14.4°C 49% 0.3 mph N0.5 kmh N 1.0 mph1.6 kmh 29.87 in1011.5 mb 0.00 in0.0 mm 0.00 in0.0 mm 0.00 in0.0 mm
03:30 AM 78.8°F26.0°C 58.0°F14.4°C 49% 0.9 mph NNE1.4 kmh NNE 3.0 mph4.8 kmh 29.87 in1011.5 mb 0.00 in0.0 mm 0.00 in0.0 mm 0.00 in0.0 mm
03:40 AM 78.4°F25.8°C 58.0°F14.4°C 50% 0.6 mph NNE1.0 kmh NNE 3.0 mph4.8 kmh 29.88 in1011.9 mb 0.00 in0.0 mm 0.00 in0.0 mm 0.00 in0.0 mm
03:50 AM 78.2°F25.7°C 58.0°F14.4°C 50% 0.2 mph NNE0.3 kmh NNE 1.0 mph1.6 kmh 29.88 in1011.9 mb 0.00 in0.0 mm 0.00 in0.0 mm 0.00 in0.0 mm
04:00 AM 78.0°F25.6°C 58.0°F14.4°C 50% 0.7 mph NNE1.1 kmh NNE 2.0 mph3.2 kmh 29.88 in1011.9 mb 0.00 in0.0 mm 0.00 in0.0 mm 0.00 in0.0 mm
04:10 AM 77.9°F25.5°C 57.0°F13.9°C 49% 0.7 mph NNE1.1 kmh NNE 2.0 mph3.2 kmh 29.88 in1011.9 mb 0.00 in0.0 mm 0.00 in0.0 mm 0.00 in0.0 mm
04:20 AM 77.9°F25.5°C 58.0°F14.4°C 51% 0.2 mph NNE0.3 kmh NNE 1.0 mph1.6 kmh 29.88 in1011.9 mb 0.00 in0.0 mm 0.00 in0.0 mm 0.00 in0.0 mm
04:30 AM 76.8°F24.9°C 58.0°F14.4°C 52% 0.8 mph NNE1.3 kmh NNE 3.0 mph4.8 kmh 29.88 in1011.9 mb 0.00 in0.0 mm 0.00 in0.0 mm 0.00 in0.0 mm
04:40 AM 77.3°F25.2°C 58.0°F14.4°C 51% 1.4 mph NE2.3 kmh NE 3.0 mph4.8 kmh 29.88 in1011.9 mb 0.00 in0.0 mm 0.00 in0.0 mm 0.00 in0.0 mm
04:50 AM 77.7°F25.4°C 57.0°F13.9°C 49% 0.8 mph NNE1.3 kmh NNE 2.0 mph3.2 kmh 29.88 in1011.9 mb 0.00 in0.0 mm 0.00 in0.0 mm 0.00 in0.0 mm
05:00 AM 77.4°F25.2°C 57.0°F13.9°C 50% 0.3 mph NNE0.5 kmh NNE 1.0 mph1.6 kmh 29.88 in1011.9 mb 0.00 in0.0 mm 0.00 in0.0 mm 0.00 in0.0 mm
05:10 AM 77.0°F25.0°C 57.0°F13.9°C 51% 0.6 mph NNE1.0 kmh NNE 2.0 mph3.2 kmh 29.89 in1012.2 mb 0.00 in0.0 mm 0.00 in0.0 mm 0.00 in0.0 mm
05:20 AM 77.1°F25.1°C 58.0°F14.4°C 52% 0.3 mph NNE0.5 kmh NNE 2.0 mph3.2 kmh 29.89 in1012.2 mb 0.00 in0.0 mm 0.00 in0.0 mm 0.00 in0.0 mm
05:30 AM 77.0°F25.0°C 58.0°F14.4°C 52% 0.1 mph NNE0.2 kmh NNE 1.0 mph1.6 kmh 29.89 in1012.2 mb 0.00 in0.0 mm 0.00 in0.0 mm 0.00 in0.0 mm
05:40 AM 76.7°F24.8°C 58.0°F14.4°C 52% Calm Calm 1.0 mph1.6 kmh 29.89 in1012.2 mb 0.00 in0.0 mm 0.00 in0.0 mm 0.00 in0.0 mm
05:50 AM 76.1°F24.5°C 58.0°F14.4°C 53% Calm Calm 1.0 mph1.6 kmh 29.90 in1012.5 mb 0.00 in0.0 mm 0.00 in0.0 mm 0.00 in0.0 mm
06:00 AM 76.1°F24.5°C 58.0°F14.4°C 54% 0.2 mph NNE0.3 kmh NNE 1.0 mph1.6 kmh 29.90 in1012.5 mb 0.00 in0.0 mm 0.00 in0.0 mm 0.00 in0.0 mm
06:10 AM 76.4°F24.7°C 58.0°F14.4°C 53% 0.2 mph NNE0.3 kmh NNE 1.0 mph1.6 kmh 29.90 in1012.5 mb 0.00 in0.0 mm 0.00 in0.0 mm 0.00 in0.0 mm
06:20 AM 76.2°F24.6°C 58.0°F14.4°C 53% Calm Calm 1.0 mph1.6 kmh 29.90 in1012.5 mb 0.00 in0.0 mm 0.00 in0.0 mm 0.00 in0.0 mm
06:30 AM 76.0°F24.4°C 58.0°F14.4°C 54% Calm Calm -- 29.90 in1012.5 mb 0.00 in0.0 mm 0.00 in0.0 mm 0.00 in0.0 mm
06:40 AM 76.0°F24.4°C 59.0°F15.0°C 56% Calm Calm 1.0 mph1.6 kmh 29.90 in1012.5 mb 0.00 in0.0 mm 0.00 in0.0 mm 0.00 in0.0 mm
06:50 AM 76.3°F24.6°C 58.0°F14.4°C 54% Calm Calm 1.0 mph1.6 kmh 29.91 in1012.9 mb 0.00 in0.0 mm 0.00 in0.0 mm 0.00 in0.0 mm
07:00 AM 77.2°F25.1°C 59.0°F15.0°C 53% 0.1 mph N0.2 kmh N 1.0 mph1.6 kmh 29.91 in1012.9 mb 0.00 in0.0 mm 0.00 in0.0 mm 0.00 in0.0 mm
07:10 AM 77.6°F25.3°C 58.0°F14.4°C 52% Calm Calm 1.0 mph1.6 kmh 29.91 in1012.9 mb 0.00 in0.0 mm 0.00 in0.0 mm 0.00 in0.0 mm
07:20 AM 78.1°F25.6°C 59.0°F15.0°C 52% Calm Calm 1.0 mph1.6 kmh 29.92 in1013.2 mb 0.00 in0.0 mm 0.00 in0.0 mm 0.00 in0.0 mm
07:30 AM 78.9°F26.1°C 59.0°F15.0°C 50% Calm Calm 1.0 mph1.6 kmh 29.92 in1013.2 mb 0.00 in0.0 mm 0.00 in0.0 mm 0.00 in0.0 mm
07:40 AM 79.4°F26.3°C 60.0°F15.6°C 51% Calm Calm 1.0 mph1.6 kmh 29.92 in1013.2 mb 0.00 in0.0 mm 0.00 in0.0 mm 0.00 in0.0 mm
07:50 AM 80.7°F27.1°C 60.0°F15.6°C 49% Calm Calm 1.0 mph1.6 kmh 29.91 in1012.9 mb 0.00 in0.0 mm 0.00 in0.0 mm 0.00 in0.0 mm
08:00 AM 82.0°F27.8°C 59.0°F15.0°C 46% 0.2 mph NW0.3 kmh NW 1.0 mph1.6 kmh 29.92 in1013.2 mb 0.00 in0.0 mm 0.00 in0.0 mm 0.00 in0.0 mm
08:10 AM 83.0°F28.3°C 59.0°F15.0°C 44% 0.1 mph NNW0.2 kmh NNW 2.0 mph3.2 kmh 29.92 in1013.2 mb 0.00 in0.0 mm 0.00 in0.0 mm 0.00 in0.0 mm
08:20 AM 84.9°F29.4°C 59.0°F15.0°C 41% 0.4 mph SW0.6 kmh SW 2.0 mph3.2 kmh 29.92 in1013.2 mb 0.00 in0.0 mm 0.00 in0.0 mm 0.00 in0.0 mm
08:30 AM 86.3°F30.2°C 59.0°F15.0°C 39% 0.2 mph SSW0.3 kmh SSW 2.0 mph3.2 kmh 29.92 in1013.2 mb 0.00 in0.0 mm 0.00 in0.0 mm 0.00 in0.0 mm
08:40 AM 87.2°F30.7°C 59.0°F15.0°C 39% 0.4 mph S0.6 kmh S 2.0 mph3.2 kmh 29.92 in1013.2 mb 0.00 in0.0 mm 0.00 in0.0 mm 0.00 in0.0 mm
08:50 AM 86.6°F30.3°C 59.0°F15.0°C 39% 1.7 mph SE2.7 kmh SE 4.0 mph6.4 kmh 29.92 in1013.2 mb 0.00 in0.0 mm 0.00 in0.0 mm 0.00 in0.0 mm
09:00 AM 87.0°F30.6°C 61.0°F16.1°C 41% 0.8 mph S1.3 kmh S 3.0 mph4.8 kmh 29.92 in1013.2 mb 0.00 in0.0 mm 0.00 in0.0 mm 0.00 in0.0 mm
09:10 AM 88.2°F31.2°C 60.0°F15.6°C 39% 1.2 mph SE1.9 kmh SE 5.0 mph8.0 kmh 29.92 in1013.2 mb 0.00 in0.0 mm 0.00 in0.0 mm 0.00 in0.0 mm
09:20 AM 88.4°F31.3°C 60.0°F15.6°C 38% 3.6 mph SE5.8 kmh SE 9.0 mph14.5 kmh 29.92 in1013.2 mb 0.00 in0.0 mm 0.00 in0.0 mm 0.00 in0.0 mm
09:30 AM 88.3°F31.3°C 60.0°F15.6°C 38% 2.9 mph SSE4.7 kmh SSE 7.0 mph11.3 kmh 29.92 in1013.2 mb 0.00 in0.0 mm 0.00 in0.0 mm 0.00 in0.0 mm
09:40 AM 88.7°F31.5°C 59.0°F15.0°C 37% 1.8 mph SW2.9 kmh SW 6.0 mph9.7 kmh 29.92 in1013.2 mb 0.00 in0.0 mm 0.00 in0.0 mm 0.00 in0.0 mm
09:50 AM 88.8°F31.6°C 60.0°F15.6°C 38% 1.2 mph SSE1.9 kmh SSE 6.0 mph9.7 kmh 29.92 in1013.2 mb 0.00 in0.0 mm 0.00 in0.0 mm 0.00 in0.0 mm
10:00 AM 88.7°F31.5°C 59.0°F15.0°C 37% 2.0 mph SE3.2 kmh SE 5.0 mph8.0 kmh 29.92 in1013.2 mb 0.00 in0.0 mm 0.00 in0.0 mm 0.00 in0.0 mm
10:10 AM 88.9°F31.6°C 60.0°F15.6°C 38% 2.2 mph SSW3.5 kmh SSW 7.0 mph11.3 kmh 29.93 in1013.5 mb 0.00 in0.0 mm 0.00 in0.0 mm 0.00 in0.0 mm
10:20 AM 89.5°F31.9°C 61.0°F16.1°C 38% 3.0 mph SE4.8 kmh SE 7.0 mph11.3 kmh 29.92 in1013.2 mb 0.00 in0.0 mm 0.00 in0.0 mm 0.00 in0.0 mm
10:30 AM 89.4°F31.9°C 61.0°F16.1°C 38% 3.2 mph SE5.1 kmh SE 7.0 mph11.3 kmh 29.92 in1013.2 mb 0.00 in0.0 mm 0.00 in0.0 mm 0.00 in0.0 mm
10:40 AM 90.2°F32.3°C 61.0°F16.1°C 38% 2.7 mph SE4.3 kmh SE 6.0 mph9.7 kmh 29.92 in1013.2 mb 0.00 in0.0 mm 0.00 in0.0 mm 0.00 in0.0 mm
10:50 AM 91.6°F33.1°C 61.0°F16.1°C 36% 2.3 mph SW3.7 kmh SW 7.0 mph11.3 kmh 29.92 in1013.2 mb 0.00 in0.0 mm 0.00 in0.0 mm 0.00 in0.0 mm
11:00 AM 91.7°F33.2°C 60.0°F15.6°C 35% 3.2 mph SE5.1 kmh SE 8.0 mph12.9 kmh 29.92 in1013.2 mb 0.00 in0.0 mm 0.00 in0.0 mm 0.00 in0.0 mm
11:10 AM 91.1°F32.8°C 61.0°F16.1°C 36% 3.5 mph SW5.6 kmh SW 8.0 mph12.9 kmh 29.91 in1012.9 mb 0.00 in0.0 mm 0.00 in0.0 mm 0.00 in0.0 mm
11:20 AM 90.7°F32.6°C 61.0°F16.1°C 37% 2.8 mph SSW4.5 kmh SSW 7.0 mph11.3 kmh 29.91 in1012.9 mb 0.00 in0.0 mm 0.00 in0.0 mm 0.00 in0.0 mm
11:30 AM 91.0°F32.8°C 62.0°F16.7°C 38% 1.7 mph SSW2.7 kmh SSW 7.0 mph11.3 kmh 29.91 in1012.9 mb 0.00 in0.0 mm 0.00 in0.0 mm 0.00 in0.0 mm
11:40 AM 91.1°F32.8°C 61.0°F16.1°C 37% 2.8 mph ESE4.5 kmh ESE 6.0 mph9.7 kmh 29.90 in1012.5 mb 0.00 in0.0 mm 0.00 in0.0 mm 0.00 in0.0 mm
11:50 AM 91.1°F32.8°C 62.0°F16.7°C 38% 2.4 mph SSW3.9 kmh SSW 7.0 mph11.3 kmh 29.89 in1012.2 mb 0.00 in0.0 mm 0.00 in0.0 mm 0.00 in0.0 mm
12:00 PM 91.0°F32.8°C 61.0°F16.1°C 37% 2.3 mph SW3.7 kmh SW 6.0 mph9.7 kmh 29.89 in1012.2 mb 0.00 in0.0 mm 0.00 in0.0 mm 0.00 in0.0 mm
12:10 PM 90.8°F32.7°C 61.0°F16.1°C 37% 3.0 mph SSE4.8 kmh SSE 9.0 mph14.5 kmh 29.89 in1012.2 mb 0.00 in0.0 mm 0.00 in0.0 mm 0.00 in0.0 mm
12:20 PM 91.4°F33.0°C 62.0°F16.7°C 37% 2.0 mph WSW3.2 kmh WSW 5.0 mph8.0 kmh 29.89 in1012.2 mb 0.00 in0.0 mm 0.00 in0.0 mm 0.00 in0.0 mm
12:30 PM 91.6°F33.1°C 62.0°F16.7°C 37% 2.9 mph SE4.7 kmh SE 7.0 mph11.3 kmh 29.88 in1011.9 mb 0.00 in0.0 mm 0.00 in0.0 mm 0.00 in0.0 mm
12:40 PM 92.0°F33.3°C 61.0°F16.1°C 36% 2.5 mph WSW4.0 kmh WSW 5.0 mph8.0 kmh 29.88 in1011.9 mb 0.00 in0.0 mm 0.00 in0.0 mm 0.00 in0.0 mm
12:50 PM 91.9°F33.3°C 61.0°F16.1°C 36% 2.7 mph SSE4.3 kmh SSE 7.0 mph11.3 kmh 29.88 in1011.9 mb 0.00 in0.0 mm 0.00 in0.0 mm 0.00 in0.0 mm
01:00 PM 92.2°F33.4°C 61.0°F16.1°C 35% 1.7 mph SW2.7 kmh SW 4.0 mph6.4 kmh 29.88 in1011.9 mb 0.00 in0.0 mm 0.00 in0.0 mm 0.00 in0.0 mm
01:10 PM 92.1°F33.4°C 61.0°F16.1°C 35% 3.0 mph SW4.8 kmh SW 9.0 mph14.5 kmh 29.87 in1011.5 mb 0.00 in0.0 mm 0.00 in0.0 mm 0.00 in0.0 mm
01:20 PM 92.0°F33.3°C 61.0°F16.1°C 35% 2.2 mph SW3.5 kmh SW 6.0 mph9.7 kmh 29.87 in1011.5 mb 0.00 in0.0 mm 0.00 in0.0 mm 0.00 in0.0 mm
01:30 PM 92.1°F33.4°C 61.0°F16.1°C 35% 2.3 mph SSE3.7 kmh SSE 7.0 mph11.3 kmh 29.86 in1011.2 mb 0.00 in0.0 mm 0.00 in0.0 mm 0.00 in0.0 mm
01:40 PM 92.4°F33.6°C 60.0°F15.6°C 34% 2.4 mph SE3.9 kmh SE 6.0 mph9.7 kmh 29.85 in1010.8 mb 0.00 in0.0 mm 0.00 in0.0 mm 0.00 in0.0 mm
01:50 PM 92.1°F33.4°C 60.0°F15.6°C 34% 2.7 mph SW4.3 kmh SW 7.0 mph11.3 kmh 29.84 in1010.5 mb 0.00 in0.0 mm 0.00 in0.0 mm 0.00 in0.0 mm
02:00 PM 91.9°F33.3°C 59.0°F15.0°C 33% 1.6 mph ESE2.6 kmh ESE 6.0 mph9.7 kmh 29.84 in1010.5 mb 0.00 in0.0 mm 0.00 in0.0 mm 0.00 in0.0 mm
02:10 PM 92.0°F33.3°C 59.0°F15.0°C 33% 1.9 mph SSW3.1 kmh SSW 7.0 mph11.3 kmh 29.83 in1010.2 mb 0.00 in0.0 mm 0.00 in0.0 mm 0.00 in0.0 mm
02:20 PM 91.9°F33.3°C 60.0°F15.6°C 34% 1.6 mph NW2.6 kmh NW 7.0 mph11.3 kmh 29.83 in1010.2 mb 0.00 in0.0 mm 0.00 in0.0 mm 0.00 in0.0 mm
02:30 PM 92.4°F33.6°C 59.0°F15.0°C 32% 2.0 mph SW3.2 kmh SW 6.0 mph9.7 kmh 29.82 in1009.8 mb 0.00 in0.0 mm 0.00 in0.0 mm 0.00 in0.0 mm
02:40 PM 93.4°F34.1°C 59.0°F15.0°C 31% 1.0 mph SW1.6 kmh SW 4.0 mph6.4 kmh 29.82 in1009.8 mb 0.00 in0.0 mm 0.00 in0.0 mm 0.00 in0.0 mm
02:50 PM 93.0°F33.9°C 59.0°F15.0°C 32% 1.4 mph W2.3 kmh W 3.0 mph4.8 kmh 29.81 in1009.5 mb 0.00 in0.0 mm 0.00 in0.0 mm 0.00 in0.0 mm
03:00 PM 92.8°F33.8°C 60.0°F15.6°C 33% 1.0 mph WNW1.6 kmh WNW 4.0 mph6.4 kmh 29.81 in1009.5 mb 0.00 in0.0 mm 0.00 in0.0 mm 0.00 in0.0 mm
03:10 PM 93.0°F33.9°C 58.0°F14.4°C 31% 1.6 mph W2.6 kmh W 6.0 mph9.7 kmh 29.81 in1009.5 mb 0.00 in0.0 mm 0.00 in0.0 mm 0.00 in0.0 mm
03:20 PM 93.0°F33.9°C 57.0°F13.9°C 30% 2.8 mph SW4.5 kmh SW 8.0 mph12.9 kmh 29.81 in1009.5 mb 0.00 in0.0 mm 0.00 in0.0 mm 0.00 in0.0 mm
03:30 PM 93.6°F34.2°C 57.0°F13.9°C 29% 2.6 mph SW4.2 kmh SW 9.0 mph14.5 kmh 29.81 in1009.5 mb 0.00 in0.0 mm 0.00 in0.0 mm 0.00 in0.0 mm
03:40 PM 94.3°F34.6°C 56.0°F13.3°C 27% 2.1 mph SE3.4 kmh SE 5.0 mph8.0 kmh 29.81 in1009.5 mb 0.00 in0.0 mm 0.00 in0.0 mm 0.00 in0.0 mm
03:50 PM 95.0°F35.0°C 56.0°F13.3°C 27% 0.7 mph N1.1 kmh N 3.0 mph4.8 kmh 29.81 in1009.5 mb 0.00 in0.0 mm 0.00 in0.0 mm 0.00 in0.0 mm
04:00 PM 94.4°F34.7°C 57.0°F13.9°C 28% 0.8 mph SSE1.3 kmh SSE 5.0 mph8.0 kmh 29.80 in1009.1 mb 0.00 in0.0 mm 0.00 in0.0 mm 0.00 in0.0 mm
04:10 PM 94.0°F34.4°C 56.0°F13.3°C 28% 2.2 mph SSW3.5 kmh SSW 7.0 mph11.3 kmh 29.79 in1008.8 mb 0.00 in0.0 mm 0.00 in0.0 mm 0.00 in0.0 mm
04:20 PM 94.0°F34.4°C 55.0°F12.8°C 27% 1.9 mph WSW3.1 kmh WSW 7.0 mph11.3 kmh 29.79 in1008.8 mb 0.00 in0.0 mm 0.00 in0.0 mm 0.00 in0.0 mm
04:30 PM 94.1°F34.5°C 54.0°F12.2°C 26% 1.3 mph SE2.1 kmh SE 6.0 mph9.7 kmh 29.79 in1008.8 mb 0.00 in0.0 mm 0.00 in0.0 mm 0.00 in0.0 mm
04:40 PM 93.7°F34.3°C 55.0°F12.8°C 27% 2.2 mph SW3.5 kmh SW 7.0 mph11.3 kmh 29.79 in1008.8 mb 0.00 in0.0 mm 0.00 in0.0 mm 0.00 in0.0 mm
04:50 PM 93.6°F34.2°C 53.0°F11.7°C 25% 2.2 mph SW3.5 kmh SW 5.0 mph8.0 kmh 29.79 in1008.8 mb 0.00 in0.0 mm 0.00 in0.0 mm 0.00 in0.0 mm
05:00 PM 93.0°F33.9°C 54.0°F12.2°C 27% 2.8 mph SW4.5 kmh SW 8.0 mph12.9 kmh 29.79 in1008.8 mb 0.00 in0.0 mm 0.00 in0.0 mm 0.00 in0.0 mm
05:10 PM 92.6°F33.7°C 54.0°F12.2°C 27% 2.3 mph SSW3.7 kmh SSW 5.0 mph8.0 kmh 29.79 in1008.8 mb 0.00 in0.0 mm 0.00 in0.0 mm 0.00 in0.0 mm
05:20 PM 92.4°F33.6°C 54.0°F12.2°C 27% 3.1 mph SW5.0 kmh SW 7.0 mph11.3 kmh 29.79 in1008.8 mb 0.00 in0.0 mm 0.00 in0.0 mm 0.00 in0.0 mm
05:30 PM 92.4°F33.6°C 54.0°F12.2°C 27% 2.4 mph S3.9 kmh S 6.0 mph9.7 kmh 29.79 in1008.8 mb 0.00 in0.0 mm 0.00 in0.0 mm 0.00 in0.0 mm
05:40 PM 92.6°F33.7°C 54.0°F12.2°C 27% 3.5 mph SW5.6 kmh SW 8.0 mph12.9 kmh 29.79 in1008.8 mb 0.00 in0.0 mm 0.00 in0.0 mm 0.00 in0.0 mm
05:50 PM 92.4°F33.6°C 54.0°F12.2°C 27% 3.1 mph S5.0 kmh S 6.0 mph9.7 kmh 29.79 in1008.8 mb 0.00 in0.0 mm 0.00 in0.0 mm 0.00 in0.0 mm
06:00 PM 92.1°F33.4°C 56.0°F13.3°C 29% 3.1 mph S5.0 kmh S 7.0 mph11.3 kmh 29.79 in1008.8 mb 0.00 in0.0 mm 0.00 in0.0 mm 0.00 in0.0 mm
06:10 PM 91.7°F33.2°C 55.0°F12.8°C 29% 3.3 mph S5.3 kmh S 7.0 mph11.3 kmh 29.80 in1009.1 mb 0.00 in0.0 mm 0.00 in0.0 mm 0.00 in0.0 mm
06:20 PM 91.5°F33.1°C 55.0°F12.8°C 29% 2.3 mph SW3.7 kmh SW 4.0 mph6.4 kmh 29.80 in1009.1 mb 0.00 in0.0 mm 0.00 in0.0 mm 0.00 in0.0 mm
06:30 PM 91.2°F32.9°C 55.0°F12.8°C 29% 2.4 mph S3.9 kmh S 6.0 mph9.7 kmh 29.80 in1009.1 mb 0.00 in0.0 mm 0.00 in0.0 mm 0.00 in0.0 mm
06:40 PM 90.9°F32.7°C 55.0°F12.8°C 29% 1.9 mph SE3.1 kmh SE 4.0 mph6.4 kmh 29.80 in1009.1 mb 0.00 in0.0 mm 0.00 in0.0 mm 0.00 in0.0 mm
06:50 PM 90.5°F32.5°C 55.0°F12.8°C 30% 1.0 mph SSE1.6 kmh SSE 4.0 mph6.4 kmh 29.80 in1009.1 mb 0.00 in0.0 mm 0.00 in0.0 mm 0.00 in0.0 mm
07:00 PM 90.0°F32.2°C 56.0°F13.3°C 31% 0.6 mph SW1.0 kmh SW 3.0 mph4.8 kmh 29.80 in1009.1 mb 0.00 in0.0 mm 0.00 in0.0 mm 0.00 in0.0 mm
07:10 PM 89.7°F32.1°C 55.0°F12.8°C 31% 1.0 mph SW1.6 kmh SW 4.0 mph6.4 kmh 29.80 in1009.1 mb 0.00 in0.0 mm 0.00 in0.0 mm 0.00 in0.0 mm
07:20 PM 89.4°F31.9°C 56.0°F13.3°C 32% 0.9 mph SE1.4 kmh SE 3.0 mph4.8 kmh 29.80 in1009.1 mb 0.00 in0.0 mm 0.00 in0.0 mm 0.00 in0.0 mm
07:30 PM 89.3°F31.8°C 55.0°F12.8°C 31% 1.1 mph SW1.8 kmh SW 3.0 mph4.8 kmh 29.81 in1009.5 mb 0.00 in0.0 mm 0.00 in0.0 mm 0.00 in0.0 mm
07:40 PM 86.6°F30.3°C 59.0°F15.0°C 39% 6.7 mph SSE10.8 kmh SSE 21.0 mph33.8 kmh 29.83 in1010.2 mb 0.00 in0.0 mm 0.00 in0.0 mm 0.00 in0.0 mm
07:50 PM 84.4°F29.1°C 59.0°F15.0°C 42% 6.8 mph ESE10.9 kmh ESE 16.0 mph25.7 kmh 29.84 in1010.5 mb 0.00 in0.0 mm 0.00 in0.0 mm 0.00 in0.0 mm
08:00 PM 83.5°F28.6°C 58.0°F14.4°C 42% 5.4 mph SE8.7 kmh SE 15.0 mph24.1 kmh 29.86 in1011.2 mb 0.00 in0.0 mm 0.00 in0.0 mm 0.00 in0.0 mm
08:10 PM 83.1°F28.4°C 56.0°F13.3°C 40% 6.2 mph SW10.0 kmh SW 14.0 mph22.5 kmh 29.86 in1011.2 mb 0.00 in0.0 mm 0.00 in0.0 mm 0.00 in0.0 mm
08:20 PM 82.7°F28.2°C 57.0°F13.9°C 41% 5.9 mph SSE9.5 kmh SSE 12.0 mph19.3 kmh 29.87 in1011.5 mb 0.00 in0.0 mm 0.00 in0.0 mm 0.00 in0.0 mm
08:30 PM 82.5°F28.1°C 57.0°F13.9°C 42% 4.8 mph ESE7.7 kmh ESE 11.0 mph17.7 kmh 29.88 in1011.9 mb 0.00 in0.0 mm 0.00 in0.0 mm 0.00 in0.0 mm
08:40 PM 82.6°F28.1°C 57.0°F13.9°C 41% 4.3 mph W6.9 kmh W 11.0 mph17.7 kmh 29.91 in1012.9 mb 0.00 in0.0 mm 0.00 in0.0 mm 0.00 in0.0 mm
08:50 PM 82.3°F27.9°C 56.0°F13.3°C 40% 4.6 mph SSW7.4 kmh SSW 15.0 mph24.1 kmh 29.91 in1012.9 mb 0.00 in0.0 mm 0.00 in0.0 mm 0.00 in0.0 mm
09:00 PM 81.9°F27.7°C 55.0°F12.8°C 40% 4.7 mph SW7.6 kmh SW 14.0 mph22.5 kmh 29.90 in1012.5 mb 0.00 in0.0 mm 0.00 in0.0 mm 0.00 in0.0 mm
09:10 PM 81.7°F27.6°C 55.0°F12.8°C 40% 6.0 mph WSW9.7 kmh WSW 14.0 mph22.5 kmh 29.91 in1012.9 mb 0.00 in0.0 mm 0.00 in0.0 mm 0.00 in0.0 mm
09:20 PM 81.6°F27.6°C 55.0°F12.8°C 40% 4.8 mph SSE7.7 kmh SSE 10.0 mph16.1 kmh 29.92 in1013.2 mb 0.00 in0.0 mm 0.00 in0.0 mm 0.00 in0.0 mm
09:30 PM 80.2°F26.8°C 61.0°F16.1°C 52% 4.5 mph SE7.2 kmh SE 10.0 mph16.1 kmh 29.92 in1013.2 mb 0.00 in0.0 mm 0.00 in0.0 mm 0.00 in0.0 mm
09:40 PM 77.8°F25.4°C 61.0°F16.1°C 56% 2.8 mph SSE4.5 kmh SSE 7.0 mph11.3 kmh 29.89 in1012.2 mb 0.00 in0.0 mm 0.00 in0.0 mm 0.00 in0.0 mm
09:50 PM 77.8°F25.4°C 57.0°F13.9°C 49% 5.3 mph SSE8.5 kmh SSE 13.0 mph20.9 kmh 29.89 in1012.2 mb 0.00 in0.0 mm 0.00 in0.0 mm 0.00 in0.0 mm
10:00 PM 77.2°F25.1°C 58.0°F14.4°C 51% 4.6 mph SSE7.4 kmh SSE 15.0 mph24.1 kmh 29.90 in1012.5 mb 0.00 in0.0 mm 0.00 in0.0 mm 0.00 in0.0 mm
10:10 PM 77.0°F25.0°C 57.0°F13.9°C 51% 2.8 mph S4.5 kmh S 8.0 mph12.9 kmh 29.91 in1012.9 mb 0.00 in0.0 mm 0.00 in0.0 mm 0.00 in0.0 mm
10:20 PM 77.0°F25.0°C 57.0°F13.9°C 51% 1.2 mph ESE1.9 kmh ESE 4.0 mph6.4 kmh 29.90 in1012.5 mb 0.00 in0.0 mm 0.00 in0.0 mm 0.00 in0.0 mm
10:30 PM 76.6°F24.8°C 58.0°F14.4°C 52% 0.6 mph SE1.0 kmh SE 3.0 mph4.8 kmh 29.90 in1012.5 mb 0.00 in0.0 mm 0.00 in0.0 mm 0.00 in0.0 mm
10:40 PM 76.3°F24.6°C 57.0°F13.9°C 52% 0.3 mph SSE0.5 kmh SSE 1.0 mph1.6 kmh 29.90 in1012.5 mb 0.00 in0.0 mm 0.00 in0.0 mm 0.00 in0.0 mm
10:50 PM 75.8°F24.3°C 57.0°F13.9°C 53% Calm Calm -- 29.90 in1012.5 mb 0.00 in0.0 mm 0.00 in0.0 mm 0.00 in0.0 mm
11:00 PM 75.2°F24.0°C 57.0°F13.9°C 53% Calm Calm -- 29.89 in1012.2 mb 0.00 in0.0 mm 0.00 in0.0 mm 0.00 in0.0 mm
11:10 PM 75.2°F24.0°C 58.0°F14.4°C 56% 1.6 mph N2.6 kmh N 4.0 mph6.4 kmh 29.88 in1011.9 mb 0.00 in0.0 mm 0.00 in0.0 mm 0.00 in0.0 mm
11:20 PM 74.9°F23.8°C 59.0°F15.0°C 57% 0.2 mph NNE0.3 kmh NNE 1.0 mph1.6 kmh 29.88 in1011.9 mb 0.00 in0.0 mm 0.00 in0.0 mm 0.00 in0.0 mm
11:30 PM 74.5°F23.6°C 58.0°F14.4°C 57% 0.6 mph NNE1.0 kmh NNE 3.0 mph4.8 kmh 29.88 in1011.9 mb 0.00 in0.0 mm 0.00 in0.0 mm 0.00 in0.0 mm
11:40 PM 74.9°F23.8°C 58.0°F14.4°C 55% 0.6 mph NE1.0 kmh NE 2.0 mph3.2 kmh 29.88 in1011.9 mb 0.00 in0.0 mm 0.00 in0.0 mm 0.00 in0.0 mm
11:50 PM 74.7°F23.7°C 57.0°F13.9°C 55% Calm Calm 1.0 mph1.6 kmh 29.87 in1011.5 mb 0.00 in0.0 mm 0.00 in0.0 mm 0.00 in0.0 mm